sensor_id;sensor_type;location;lat;lon;timestamp;P1;durP1;ratioP1;P2;durP2;ratioP2
44452;SDS011;30155;52.164;21.236;2023-03-01T00:03:36;88.80;;;44.40;;
44452;SDS011;30155;52.164;21.236;2023-03-01T00:08:29;94.70;;;47.00;;
44452;SDS011;30155;52.164;21.236;2023-03-01T00:13:24;75.20;;;41.80;;
44452;SDS011;30155;52.164;21.236;2023-03-01T00:18:16;74.00;;;37.40;;
44452;SDS011;30155;52.164;21.236;2023-03-01T00:23:09;70.80;;;39.30;;
44452;SDS011;30155;52.164;21.236;2023-03-01T00:28:02;64.10;;;37.30;;
44452;SDS011;30155;52.164;21.236;2023-03-01T00:32:55;93.50;;;48.80;;
44452;SDS011;30155;52.164;21.236;2023-03-01T00:37:48;94.00;;;47.70;;
44452;SDS011;30155;52.164;21.236;2023-03-01T00:42:44;95.50;;;50.90;;
44452;SDS011;30155;52.164;21.236;2023-03-01T00:47:37;94.90;;;48.30;;
44452;SDS011;30155;52.164;21.236;2023-03-01T00:52:30;95.50;;;49.60;;
44452;SDS011;30155;52.164;21.236;2023-03-01T00:57:23;95.40;;;53.30;;
44452;SDS011;30155;52.164;21.236;2023-03-01T01:02:16;92.50;;;46.90;;
44452;SDS011;30155;52.164;21.236;2023-03-01T01:07:09;100.00;;;49.10;;
44452;SDS011;30155;52.164;21.236;2023-03-01T01:12:02;73.50;;;39.90;;
44452;SDS011;30155;52.164;21.236;2023-03-01T01:16:55;95.00;;;48.90;;
44452;SDS011;30155;52.164;21.236;2023-03-01T01:21:48;91.90;;;49.10;;
44452;SDS011;30155;52.164;21.236;2023-03-01T01:26:42;96.40;;;50.90;;
44452;SDS011;30155;52.164;21.236;2023-03-01T01:31:37;89.70;;;48.20;;
44452;SDS011;30155;52.164;21.236;2023-03-01T01:36:33;85.10;;;46.90;;
44452;SDS011;30155;52.164;21.236;2023-03-01T01:41:27;88.80;;;45.50;;
44452;SDS011;30155;52.164;21.236;2023-03-01T01:46:23;87.40;;;46.80;;
44452;SDS011;30155;52.164;21.236;2023-03-01T01:51:24;75.20;;;41.70;;
44452;SDS011;30155;52.164;21.236;2023-03-01T02:01:14;83.90;;;44.80;;
44452;SDS011;30155;52.164;21.236;2023-03-01T02:06:10;81.50;;;42.00;;
44452;SDS011;30155;52.164;21.236;2023-03-01T02:11:09;77.60;;;42.30;;
44452;SDS011;30155;52.164;21.236;2023-03-01T02:16:08;84.80;;;46.50;;
44452;SDS011;30155;52.164;21.236;2023-03-01T02:26:00;79.60;;;45.60;;
44452;SDS011;30155;52.164;21.236;2023-03-01T02:31:05;88.60;;;45.10;;
44452;SDS011;30155;52.164;21.236;2023-03-01T02:36:25;87.80;;;43.50;;
44452;SDS011;30155;52.164;21.236;2023-03-01T02:41:23;86.50;;;42.90;;
44452;SDS011;30155;52.164;21.236;2023-03-01T02:46:23;86.00;;;43.70;;
44452;SDS011;30155;52.164;21.236;2023-03-01T02:56:19;81.40;;;42.60;;
44452;SDS011;30155;52.164;21.236;2023-03-01T03:01:12;75.80;;;40.10;;
44452;SDS011;30155;52.164;21.236;2023-03-01T03:06:07;78.80;;;43.30;;
44452;SDS011;30155;52.164;21.236;2023-03-01T03:11:00;85.80;;;44.10;;
44452;SDS011;30155;52.164;21.236;2023-03-01T03:15:54;82.70;;;41.50;;
44452;SDS011;30155;52.164;21.236;2023-03-01T03:20:48;81.90;;;43.40;;
44452;SDS011;30155;52.164;21.236;2023-03-01T03:25:44;73.50;;;39.30;;
44452;SDS011;30155;52.164;21.236;2023-03-01T03:30:38;80.90;;;41.80;;
44452;SDS011;30155;52.164;21.236;2023-03-01T03:35:34;73.40;;;38.80;;
44452;SDS011;30155;52.164;21.236;2023-03-01T03:45:27;76.70;;;38.10;;
44452;SDS011;30155;52.164;21.236;2023-03-01T03:50:19;75.20;;;40.10;;
44452;SDS011;30155;52.164;21.236;2023-03-01T03:55:13;81.20;;;41.00;;
44452;SDS011;30155;52.164;21.236;2023-03-01T04:00:11;82.50;;;39.70;;
44452;SDS011;30155;52.164;21.236;2023-03-01T04:05:05;78.30;;;40.60;;
44452;SDS011;30155;52.164;21.236;2023-03-01T04:09:59;71.80;;;38.20;;
44452;SDS011;30155;52.164;21.236;2023-03-01T04:14:52;72.10;;;40.00;;
44452;SDS011;30155;52.164;21.236;2023-03-01T04:19:44;74.70;;;38.50;;
44452;SDS011;30155;52.164;21.236;2023-03-01T04:24:40;73.60;;;41.10;;
44452;SDS011;30155;52.164;21.236;2023-03-01T04:29:34;73.70;;;39.50;;
44452;SDS011;30155;52.164;21.236;2023-03-01T04:34:27;64.90;;;35.80;;
44452;SDS011;30155;52.164;21.236;2023-03-01T04:39:20;73.60;;;39.20;;
44452;SDS011;30155;52.164;21.236;2023-03-01T04:44:13;73.40;;;39.80;;
44452;SDS011;30155;52.164;21.236;2023-03-01T04:49:06;76.10;;;40.20;;
44452;SDS011;30155;52.164;21.236;2023-03-01T04:54:01;74.90;;;38.00;;
44452;SDS011;30155;52.164;21.236;2023-03-01T04:58:54;77.00;;;38.60;;
44452;SDS011;30155;52.164;21.236;2023-03-01T05:03:48;65.90;;;32.90;;
44452;SDS011;30155;52.164;21.236;2023-03-01T05:08:42;71.40;;;37.20;;
44452;SDS011;30155;52.164;21.236;2023-03-01T05:13:36;62.50;;;34.70;;
44452;SDS011;30155;52.164;21.236;2023-03-01T05:18:31;69.90;;;36.20;;
44452;SDS011;30155;52.164;21.236;2023-03-01T05:23:25;68.10;;;36.10;;
44452;SDS011;30155;52.164;21.236;2023-03-01T05:28:18;67.90;;;34.30;;
44452;SDS011;30155;52.164;21.236;2023-03-01T05:33:11;74.10;;;36.60;;
44452;SDS011;30155;52.164;21.236;2023-03-01T05:38:05;67.40;;;34.80;;
44452;SDS011;30155;52.164;21.236;2023-03-01T05:42:58;64.70;;;35.00;;
44452;SDS011;30155;52.164;21.236;2023-03-01T05:47:51;77.80;;;39.80;;
44452;SDS011;30155;52.164;21.236;2023-03-01T05:52:47;69.60;;;37.90;;
44452;SDS011;30155;52.164;21.236;2023-03-01T05:57:44;66.10;;;35.40;;
44452;SDS011;30155;52.164;21.236;2023-03-01T06:02:37;72.50;;;38.50;;
44452;SDS011;30155;52.164;21.236;2023-03-01T06:07:29;65.40;;;35.90;;
44452;SDS011;30155;52.164;21.236;2023-03-01T06:12:22;68.40;;;37.60;;
44452;SDS011;30155;52.164;21.236;2023-03-01T06:17:15;64.10;;;38.00;;
44452;SDS011;30155;52.164;21.236;2023-03-01T06:22:08;71.50;;;38.30;;
44452;SDS011;30155;52.164;21.236;2023-03-01T06:27:00;66.70;;;37.80;;
44452;SDS011;30155;52.164;21.236;2023-03-01T06:31:53;70.50;;;37.40;;
44452;SDS011;30155;52.164;21.236;2023-03-01T06:36:46;73.00;;;40.20;;
44452;SDS011;30155;52.164;21.236;2023-03-01T06:41:38;65.60;;;35.70;;
44452;SDS011;30155;52.164;21.236;2023-03-01T06:46:34;68.00;;;38.30;;
44452;SDS011;30155;52.164;21.236;2023-03-01T06:51:27;75.30;;;40.10;;
44452;SDS011;30155;52.164;21.236;2023-03-01T06:56:20;69.30;;;38.90;;
44452;SDS011;30155;52.164;21.236;2023-03-01T07:01:13;60.40;;;34.40;;
44452;SDS011;30155;52.164;21.236;2023-03-01T07:06:06;56.40;;;33.20;;
44452;SDS011;30155;52.164;21.236;2023-03-01T07:10:58;62.10;;;36.00;;
44452;SDS011;30155;52.164;21.236;2023-03-01T07:15:53;53.70;;;30.70;;
44452;SDS011;30155;52.164;21.236;2023-03-01T07:20:46;60.50;;;33.50;;
44452;SDS011;30155;52.164;21.236;2023-03-01T07:25:38;53.10;;;32.40;;
44452;SDS011;30155;52.164;21.236;2023-03-01T07:30:31;56.50;;;32.30;;
44452;SDS011;30155;52.164;21.236;2023-03-01T07:35:27;52.40;;;30.10;;
44452;SDS011;30155;52.164;21.236;2023-03-01T07:40:20;54.50;;;31.90;;
44452;SDS011;30155;52.164;21.236;2023-03-01T07:45:13;50.40;;;29.90;;
44452;SDS011;30155;52.164;21.236;2023-03-01T07:50:05;50.80;;;30.00;;
44452;SDS011;30155;52.164;21.236;2023-03-01T07:54:59;50.80;;;29.70;;
44452;SDS011;30155;52.164;21.236;2023-03-01T07:59:51;45.60;;;28.70;;
44452;SDS011;30155;52.164;21.236;2023-03-01T08:04:44;46.70;;;31.50;;
44452;SDS011;30155;52.164;21.236;2023-03-01T08:09:37;39.30;;;28.80;;
44452;SDS011;30155;52.164;21.236;2023-03-01T08:14:30;44.20;;;30.90;;
44452;SDS011;30155;52.164;21.236;2023-03-01T08:19:25;42.40;;;27.40;;
44452;SDS011;30155;52.164;21.236;2023-03-01T08:24:19;34.80;;;22.60;;
44452;SDS011;30155;52.164;21.236;2023-03-01T08:29:12;32.50;;;25.00;;
44452;SDS011;30155;52.164;21.236;2023-03-01T08:34:06;30.30;;;22.80;;
44452;SDS011;30155;52.164;21.236;2023-03-01T08:39:01;30.00;;;23.00;;
44452;SDS011;30155;52.164;21.236;2023-03-01T08:43:54;27.80;;;21.60;;
44452;SDS011;30155;52.164;21.236;2023-03-01T08:48:50;34.60;;;20.90;;
44452;SDS011;30155;52.164;21.236;2023-03-01T08:53:43;31.20;;;20.40;;
44452;SDS011;30155;52.164;21.236;2023-03-01T08:58:37;26.20;;;17.50;;
44452;SDS011;30155;52.164;21.236;2023-03-01T09:03:31;24.80;;;19.20;;
44452;SDS011;30155;52.164;21.236;2023-03-01T09:08:23;33.00;;;18.90;;
44452;SDS011;30155;52.164;21.236;2023-03-01T09:13:16;27.20;;;20.00;;
44452;SDS011;30155;52.164;21.236;2023-03-01T09:18:09;24.20;;;16.70;;
44452;SDS011;30155;52.164;21.236;2023-03-01T09:23:02;27.40;;;19.10;;
44452;SDS011;30155;52.164;21.236;2023-03-01T09:27:54;24.80;;;18.00;;
44452;SDS011;30155;52.164;21.236;2023-03-01T09:32:47;20.80;;;15.10;;
44452;SDS011;30155;52.164;21.236;2023-03-01T09:37:40;22.80;;;16.90;;
44452;SDS011;30155;52.164;21.236;2023-03-01T09:42:34;19.40;;;15.90;;
44452;SDS011;30155;52.164;21.236;2023-03-01T09:47:30;19.30;;;15.50;;
44452;SDS011;30155;52.164;21.236;2023-03-01T10:02:42;22.20;;;15.90;;
44452;SDS011;30155;52.164;21.236;2023-03-01T10:12:49;25.30;;;19.10;;
44452;SDS011;30155;52.164;21.236;2023-03-01T10:17:56;26.90;;;19.20;;
44452;SDS011;30155;52.164;21.236;2023-03-01T10:22:57;27.50;;;19.80;;
44452;SDS011;30155;52.164;21.236;2023-03-01T10:27:53;24.10;;;18.50;;
44452;SDS011;30155;52.164;21.236;2023-03-01T10:32:52;23.60;;;18.00;;
44452;SDS011;30155;52.164;21.236;2023-03-01T10:42:57;21.90;;;16.90;;
44452;SDS011;30155;52.164;21.236;2023-03-01T10:53:08;26.50;;;18.80;;
44452;SDS011;30155;52.164;21.236;2023-03-01T10:58:21;20.20;;;14.40;;
44452;SDS011;30155;52.164;21.236;2023-03-01T11:03:16;23.80;;;16.20;;
44452;SDS011;30155;52.164;21.236;2023-03-01T11:08:14;18.90;;;15.30;;
44452;SDS011;30155;52.164;21.236;2023-03-01T11:13:08;24.40;;;14.00;;
44452;SDS011;30155;52.164;21.236;2023-03-01T11:18:19;22.40;;;17.00;;
44452;SDS011;30155;52.164;21.236;2023-03-01T11:28:21;21.70;;;16.80;;
44452;SDS011;30155;52.164;21.236;2023-03-01T11:33:19;19.50;;;14.10;;
44452;SDS011;30155;52.164;21.236;2023-03-01T11:38:27;16.40;;;14.60;;
44452;SDS011;30155;52.164;21.236;2023-03-01T11:59:40;12.90;;;11.00;;
44452;SDS011;30155;52.164;21.236;2023-03-01T12:25:34;15.30;;;12.00;;
44452;SDS011;30155;52.164;21.236;2023-03-01T12:40:52;14.30;;;11.10;;
44452;SDS011;30155;52.164;21.236;2023-03-01T12:46:10;14.30;;;11.60;;
44452;SDS011;30155;52.164;21.236;2023-03-01T12:51:11;18.20;;;11.60;;
44452;SDS011;30155;52.164;21.236;2023-03-01T12:56:13;16.10;;;12.10;;
44452;SDS011;30155;52.164;21.236;2023-03-01T13:06:19;16.80;;;11.20;;
44452;SDS011;30155;52.164;21.236;2023-03-01T13:11:28;15.80;;;12.00;;
44452;SDS011;30155;52.164;21.236;2023-03-01T13:16:27;15.30;;;10.60;;
44452;SDS011;30155;52.164;21.236;2023-03-01T13:21:36;14.50;;;11.00;;
44452;SDS011;30155;52.164;21.236;2023-03-01T13:26:29;11.90;;;9.60;;
44452;SDS011;30155;52.164;21.236;2023-03-01T13:46:33;18.50;;;10.20;;
44452;SDS011;30155;52.164;21.236;2023-03-01T13:51:27;15.10;;;8.90;;
44452;SDS011;30155;52.164;21.236;2023-03-01T13:56:33;14.50;;;9.00;;
44452;SDS011;30155;52.164;21.236;2023-03-01T14:01:31;12.20;;;8.40;;
44452;SDS011;30155;52.164;21.236;2023-03-01T14:06:31;11.00;;;8.00;;
44452;SDS011;30155;52.164;21.236;2023-03-01T14:11:35;14.80;;;9.00;;
44452;SDS011;30155;52.164;21.236;2023-03-01T14:27:09;13.50;;;9.00;;
44452;SDS011;30155;52.164;21.236;2023-03-01T14:32:38;12.30;;;9.80;;
44452;SDS011;30155;52.164;21.236;2023-03-01T14:37:25;20.30;;;11.50;;
44452;SDS011;30155;52.164;21.236;2023-03-01T14:42:19;17.90;;;11.70;;
44452;SDS011;30155;52.164;21.236;2023-03-01T14:47:15;16.40;;;10.40;;
44452;SDS011;30155;52.164;21.236;2023-03-01T14:52:20;13.20;;;10.20;;
44452;SDS011;30155;52.164;21.236;2023-03-01T14:57:21;20.40;;;13.30;;
44452;SDS011;30155;52.164;21.236;2023-03-01T15:02:18;14.50;;;10.20;;
44452;SDS011;30155;52.164;21.236;2023-03-01T15:12:34;15.40;;;10.10;;
44452;SDS011;30155;52.164;21.236;2023-03-01T15:17:32;10.70;;;9.20;;
44452;SDS011;30155;52.164;21.236;2023-03-01T15:22:27;15.60;;;9.70;;
44452;SDS011;30155;52.164;21.236;2023-03-01T15:27:23;13.60;;;9.10;;
44452;SDS011;30155;52.164;21.236;2023-03-01T15:32:28;11.70;;;9.70;;
44452;SDS011;30155;52.164;21.236;2023-03-01T15:47:25;15.20;;;10.60;;
44452;SDS011;30155;52.164;21.236;2023-03-01T15:52:32;15.70;;;9.50;;
44452;SDS011;30155;52.164;21.236;2023-03-01T15:57:31;14.40;;;9.80;;
44452;SDS011;30155;52.164;21.236;2023-03-01T16:02:23;18.40;;;10.40;;
44452;SDS011;30155;52.164;21.236;2023-03-01T16:07:17;15.60;;;11.30;;
44452;SDS011;30155;52.164;21.236;2023-03-01T16:12:15;16.30;;;10.10;;
44452;SDS011;30155;52.164;21.236;2023-03-01T16:17:08;17.80;;;9.70;;
44452;SDS011;30155;52.164;21.236;2023-03-01T16:22:02;16.10;;;9.60;;
44452;SDS011;30155;52.164;21.236;2023-03-01T16:26:55;14.50;;;9.10;;
44452;SDS011;30155;52.164;21.236;2023-03-01T16:31:47;17.00;;;9.00;;
44452;SDS011;30155;52.164;21.236;2023-03-01T16:36:42;13.30;;;10.40;;
44452;SDS011;30155;52.164;21.236;2023-03-01T16:41:35;19.40;;;11.70;;
44452;SDS011;30155;52.164;21.236;2023-03-01T16:46:28;16.10;;;10.80;;
44452;SDS011;30155;52.164;21.236;2023-03-01T16:51:21;17.60;;;11.10;;
44452;SDS011;30155;52.164;21.236;2023-03-01T16:56:15;19.90;;;11.00;;
44452;SDS011;30155;52.164;21.236;2023-03-01T17:01:10;18.50;;;11.40;;
44452;SDS011;30155;52.164;21.236;2023-03-01T17:06:06;22.30;;;12.10;;
44452;SDS011;30155;52.164;21.236;2023-03-01T17:16:03;22.00;;;13.90;;
44452;SDS011;30155;52.164;21.236;2023-03-01T17:20:59;20.80;;;13.60;;
44452;SDS011;30155;52.164;21.236;2023-03-01T17:25:56;24.70;;;15.40;;
44452;SDS011;30155;52.164;21.236;2023-03-01T17:30:53;25.50;;;16.60;;
44452;SDS011;30155;52.164;21.236;2023-03-01T17:35:48;23.20;;;14.80;;
44452;SDS011;30155;52.164;21.236;2023-03-01T17:41:03;29.70;;;15.90;;
44452;SDS011;30155;52.164;21.236;2023-03-01T17:46:15;27.90;;;14.60;;
44452;SDS011;30155;52.164;21.236;2023-03-01T17:51:19;31.70;;;19.00;;
44452;SDS011;30155;52.164;21.236;2023-03-01T17:56:32;30.20;;;17.90;;
44452;SDS011;30155;52.164;21.236;2023-03-01T18:01:24;33.50;;;18.70;;
44452;SDS011;30155;52.164;21.236;2023-03-01T18:06:22;26.00;;;17.50;;
44452;SDS011;30155;52.164;21.236;2023-03-01T18:11:17;22.80;;;14.60;;
44452;SDS011;30155;52.164;21.236;2023-03-01T18:16:11;30.10;;;18.10;;
44452;SDS011;30155;52.164;21.236;2023-03-01T18:21:07;26.80;;;16.40;;
44452;SDS011;30155;52.164;21.236;2023-03-01T18:26:10;25.30;;;16.40;;
44452;SDS011;30155;52.164;21.236;2023-03-01T18:31:08;23.60;;;12.80;;
44452;SDS011;30155;52.164;21.236;2023-03-01T18:36:02;28.50;;;17.30;;
44452;SDS011;30155;52.164;21.236;2023-03-01T18:40:56;22.30;;;15.60;;
44452;SDS011;30155;52.164;21.236;2023-03-01T18:45:54;30.70;;;16.60;;
44452;SDS011;30155;52.164;21.236;2023-03-01T18:50:48;28.50;;;16.40;;
44452;SDS011;30155;52.164;21.236;2023-03-01T18:55:41;24.00;;;15.00;;
44452;SDS011;30155;52.164;21.236;2023-03-01T19:00:34;23.90;;;15.90;;
44452;SDS011;30155;52.164;21.236;2023-03-01T19:05:27;30.20;;;17.30;;
44452;SDS011;30155;52.164;21.236;2023-03-01T19:10:23;32.20;;;17.60;;
44452;SDS011;30155;52.164;21.236;2023-03-01T19:15:16;25.80;;;15.60;;
44452;SDS011;30155;52.164;21.236;2023-03-01T19:20:10;23.50;;;13.70;;
44452;SDS011;30155;52.164;21.236;2023-03-01T19:25:03;31.60;;;19.70;;
44452;SDS011;30155;52.164;21.236;2023-03-01T19:29:57;32.90;;;21.80;;
44452;SDS011;30155;52.164;21.236;2023-03-01T19:34:49;21.80;;;15.70;;
44452;SDS011;30155;52.164;21.236;2023-03-01T19:39:42;29.70;;;18.70;;
44452;SDS011;30155;52.164;21.236;2023-03-01T19:44:35;31.60;;;20.70;;
44452;SDS011;30155;52.164;21.236;2023-03-01T19:49:29;35.80;;;23.10;;
44452;SDS011;30155;52.164;21.236;2023-03-01T19:54:23;32.60;;;21.70;;
44452;SDS011;30155;52.164;21.236;2023-03-01T19:59:16;33.30;;;21.80;;
44452;SDS011;30155;52.164;21.236;2023-03-01T20:04:15;35.10;;;24.30;;
44452;SDS011;30155;52.164;21.236;2023-03-01T20:09:07;33.90;;;22.70;;
44452;SDS011;30155;52.164;21.236;2023-03-01T20:14:11;37.80;;;24.60;;
44452;SDS011;30155;52.164;21.236;2023-03-01T20:19:07;42.80;;;23.30;;
44452;SDS011;30155;52.164;21.236;2023-03-01T20:24:14;32.60;;;20.90;;
44452;SDS011;30155;52.164;21.236;2023-03-01T20:29:23;39.30;;;23.10;;
44452;SDS011;30155;52.164;21.236;2023-03-01T20:34:22;35.10;;;22.20;;
44452;SDS011;30155;52.164;21.236;2023-03-01T20:39:53;35.20;;;22.30;;
44452;SDS011;30155;52.164;21.236;2023-03-01T20:45:12;33.30;;;22.30;;
44452;SDS011;30155;52.164;21.236;2023-03-01T20:50:10;37.50;;;22.20;;
44452;SDS011;30155;52.164;21.236;2023-03-01T20:55:14;29.90;;;19.70;;
44452;SDS011;30155;52.164;21.236;2023-03-01T21:00:07;38.90;;;24.70;;
44452;SDS011;30155;52.164;21.236;2023-03-01T21:05:01;41.70;;;24.10;;
44452;SDS011;30155;52.164;21.236;2023-03-01T21:09:54;32.00;;;20.50;;
44452;SDS011;30155;52.164;21.236;2023-03-01T21:14:48;40.60;;;22.30;;
44452;SDS011;30155;52.164;21.236;2023-03-01T21:19:41;45.50;;;29.80;;
44452;SDS011;30155;52.164;21.236;2023-03-01T21:24:35;47.70;;;30.10;;
44452;SDS011;30155;52.164;21.236;2023-03-01T21:29:28;48.40;;;27.90;;
44452;SDS011;30155;52.164;21.236;2023-03-01T21:34:21;47.00;;;25.20;;
44452;SDS011;30155;52.164;21.236;2023-03-01T21:39:14;40.80;;;24.90;;
44452;SDS011;30155;52.164;21.236;2023-03-01T21:44:07;38.80;;;23.20;;
44452;SDS011;30155;52.164;21.236;2023-03-01T21:49:00;43.90;;;25.60;;
44452;SDS011;30155;52.164;21.236;2023-03-01T21:53:53;41.40;;;25.00;;
44452;SDS011;30155;52.164;21.236;2023-03-01T21:58:47;35.40;;;22.00;;
44452;SDS011;30155;52.164;21.236;2023-03-01T22:03:41;41.20;;;25.50;;
44452;SDS011;30155;52.164;21.236;2023-03-01T22:08:36;44.30;;;27.30;;
44452;SDS011;30155;52.164;21.236;2023-03-01T22:13:29;42.90;;;29.60;;
44452;SDS011;30155;52.164;21.236;2023-03-01T22:18:22;48.60;;;32.00;;
44452;SDS011;30155;52.164;21.236;2023-03-01T22:23:15;53.00;;;33.00;;
44452;SDS011;30155;52.164;21.236;2023-03-01T22:28:08;66.60;;;38.60;;
44452;SDS011;30155;52.164;21.236;2023-03-01T22:33:00;58.90;;;38.10;;
44452;SDS011;30155;52.164;21.236;2023-03-01T22:37:53;50.70;;;32.80;;
44452;SDS011;30155;52.164;21.236;2023-03-01T22:42:46;51.80;;;31.30;;
44452;SDS011;30155;52.164;21.236;2023-03-01T22:47:39;54.50;;;33.60;;
44452;SDS011;30155;52.164;21.236;2023-03-01T22:52:32;54.00;;;33.00;;
44452;SDS011;30155;52.164;21.236;2023-03-01T22:57:24;56.30;;;33.90;;
44452;SDS011;30155;52.164;21.236;2023-03-01T23:08:14;58.10;;;36.10;;
44452;SDS011;30155;52.164;21.236;2023-03-01T23:13:44;63.50;;;35.70;;
44452;SDS011;30155;52.164;21.236;2023-03-01T23:18:38;75.50;;;41.50;;
44452;SDS011;30155;52.164;21.236;2023-03-01T23:23:31;64.80;;;37.40;;
44452;SDS011;30155;52.164;21.236;2023-03-01T23:28:24;70.00;;;40.40;;
44452;SDS011;30155;52.164;21.236;2023-03-01T23:33:17;64.00;;;40.20;;
44452;SDS011;30155;52.164;21.236;2023-03-01T23:38:10;69.50;;;39.60;;
44452;SDS011;30155;52.164;21.236;2023-03-01T23:43:02;58.40;;;37.00;;
44452;SDS011;30155;52.164;21.236;2023-03-01T23:47:55;60.10;;;35.20;;
44452;SDS011;30155;52.164;21.236;2023-03-01T23:52:48;61.40;;;36.30;;
44452;SDS011;30155;52.164;21.236;2023-03-01T23:57:40;61.60;;;36.10;;
